sensor_id;sensor_type;location;lat;lon;timestamp;pressure;altitude;pressure_sealevel;temperature;humidity
63700;BME280;49845;47.130;142.766;2023-03-16T00:01:06;100557.56;;;1.98;73.69
63700;BME280;49845;47.130;142.766;2023-03-16T00:03:37;100541.19;;;1.96;73.73
63700;BME280;49845;47.130;142.766;2023-03-16T00:06:08;100537.75;;;1.97;73.64
63700;BME280;49845;47.130;142.766;2023-03-16T00:08:39;100529.28;;;2.01;73.95
63700;BME280;49845;47.130;142.766;2023-03-16T00:11:10;100524.06;;;1.98;73.96
63700;BME280;49845;47.130;142.766;2023-03-16T00:13:42;100507.13;;;2.09;73.56
63700;BME280;49845;47.130;142.766;2023-03-16T00:16:13;100514.34;;;2.26;73.50
63700;BME280;49845;47.130;142.766;2023-03-16T00:18:44;100461.66;;;2.13;73.26
63700;BME280;49845;47.130;142.766;2023-03-16T00:21:15;100510.38;;;2.42;72.37
63700;BME280;49845;47.130;142.766;2023-03-16T00:23:45;100503.28;;;2.30;72.46
63700;BME280;49845;47.130;142.766;2023-03-16T00:26:16;100496.97;;;2.15;72.46
63700;BME280;49845;47.130;142.766;2023-03-16T00:28:49;100495.06;;;2.08;72.83
63700;BME280;49845;47.130;142.766;2023-03-16T00:31:21;100482.69;;;1.92;72.68
63700;BME280;49845;47.130;142.766;2023-03-16T00:33:53;100454.84;;;1.76;73.39
63700;BME280;49845;47.130;142.766;2023-03-16T00:36:23;100460.88;;;1.76;73.70
63700;BME280;49845;47.130;142.766;2023-03-16T00:38:54;100448.47;;;1.99;74.03
63700;BME280;49845;47.130;142.766;2023-03-16T00:41:24;100468.44;;;2.08;73.99
63700;BME280;49845;47.130;142.766;2023-03-16T00:43:56;100493.41;;;2.10;73.33
63700;BME280;49845;47.130;142.766;2023-03-16T00:46:28;100505.28;;;2.02;73.52
63700;BME280;49845;47.130;142.766;2023-03-16T00:48:59;100401.41;;;1.27;73.58
63700;BME280;49845;47.130;142.766;2023-03-16T00:51:30;100493.31;;;1.68;73.94
63700;BME280;49845;47.130;142.766;2023-03-16T00:54:01;100529.63;;;1.79;74.51
63700;BME280;49845;47.130;142.766;2023-03-16T00:56:33;100530.47;;;1.78;74.77
63700;BME280;49845;47.130;142.766;2023-03-16T00:59:05;100508.44;;;1.54;75.08
63700;BME280;49845;47.130;142.766;2023-03-16T01:01:36;100566.75;;;1.87;75.40
63700;BME280;49845;47.130;142.766;2023-03-16T01:04:07;100561.75;;;1.93;76.15
63700;BME280;49845;47.130;142.766;2023-03-16T01:06:38;100546.22;;;1.90;76.46
63700;BME280;49845;47.130;142.766;2023-03-16T01:09:09;100521.66;;;1.69;78.18
63700;BME280;49845;47.130;142.766;2023-03-16T01:11:42;100516.69;;;1.76;79.27
63700;BME280;49845;47.130;142.766;2023-03-16T01:14:14;100511.59;;;1.79;79.93
63700;BME280;49845;47.130;142.766;2023-03-16T01:16:45;100492.88;;;1.86;80.23
63700;BME280;49845;47.130;142.766;2023-03-16T01:19:15;100486.56;;;1.73;80.73
63700;BME280;49845;47.130;142.766;2023-03-16T01:21:46;100445.66;;;1.49;81.53
63700;BME280;49845;47.130;142.766;2023-03-16T01:24:16;100463.84;;;1.55;82.38
63700;BME280;49845;47.130;142.766;2023-03-16T01:26:47;100459.44;;;1.51;82.93
63700;BME280;49845;47.130;142.766;2023-03-16T01:29:22;100450.78;;;1.49;83.52
63700;BME280;49845;47.130;142.766;2023-03-16T01:31:53;100430.97;;;1.45;83.92
63700;BME280;49845;47.130;142.766;2023-03-16T01:34:24;100404.34;;;1.44;84.30
63700;BME280;49845;47.130;142.766;2023-03-16T01:36:55;100394.19;;;1.52;84.91
63700;BME280;49845;47.130;142.766;2023-03-16T01:39:26;100389.53;;;1.73;84.72
63700;BME280;49845;47.130;142.766;2023-03-16T01:41:56;100306.06;;;1.24;84.52
63700;BME280;49845;47.130;142.766;2023-03-16T01:44:28;100379.53;;;1.89;84.83
63700;BME280;49845;47.130;142.766;2023-03-16T01:47:02;100379.50;;;1.86;85.11
63700;BME280;49845;47.130;142.766;2023-03-16T01:49:34;100374.34;;;1.86;85.80
63700;BME280;49845;47.130;142.766;2023-03-16T01:52:09;100381.97;;;1.81;85.47
63700;BME280;49845;47.130;142.766;2023-03-16T01:54:44;100353.53;;;1.77;86.41
63700;BME280;49845;47.130;142.766;2023-03-16T01:57:18;100339.94;;;1.84;86.90
63700;BME280;49845;47.130;142.766;2023-03-16T01:59:52;100347.88;;;1.94;87.00
63700;BME280;49845;47.130;142.766;2023-03-16T02:02:27;100344.72;;;2.08;86.17
63700;BME280;49845;47.130;142.766;2023-03-16T02:05:01;100334.41;;;2.09;86.58
63700;BME280;49845;47.130;142.766;2023-03-16T02:07:36;100328.44;;;2.10;86.65
63700;BME280;49845;47.130;142.766;2023-03-16T02:10:08;100326.63;;;2.06;86.37
63700;BME280;49845;47.130;142.766;2023-03-16T02:12:40;100321.44;;;2.03;86.47
63700;BME280;49845;47.130;142.766;2023-03-16T02:15:14;100308.56;;;2.05;86.47
63700;BME280;49845;47.130;142.766;2023-03-16T02:17:45;100305.81;;;1.97;86.33
63700;BME280;49845;47.130;142.766;2023-03-16T02:20:30;100297.22;;;1.95;86.91
63700;BME280;49845;47.130;142.766;2023-03-16T02:23:03;100293.69;;;1.90;87.11
63700;BME280;49845;47.130;142.766;2023-03-16T02:25:39;100283.91;;;2.18;87.27
63700;BME280;49845;47.130;142.766;2023-03-16T02:28:20;100270.06;;;2.12;87.31
63700;BME280;49845;47.130;142.766;2023-03-16T02:30:56;100274.41;;;2.15;87.03
63700;BME280;49845;47.130;142.766;2023-03-16T02:33:28;100268.34;;;2.14;87.46
63700;BME280;49845;47.130;142.766;2023-03-16T02:36:00;100280.28;;;2.09;87.72
63700;BME280;49845;47.130;142.766;2023-03-16T02:38:31;100262.16;;;2.03;88.19
63700;BME280;49845;47.130;142.766;2023-03-16T02:41:10;100257.72;;;1.96;88.62
63700;BME280;49845;47.130;142.766;2023-03-16T02:43:43;100260.44;;;2.04;89.21
63700;BME280;49845;47.130;142.766;2023-03-16T02:46:19;100255.31;;;2.05;89.50
63700;BME280;49845;47.130;142.766;2023-03-16T02:48:56;100246.84;;;2.12;89.83
63700;BME280;49845;47.130;142.766;2023-03-16T02:51:30;100240.88;;;2.16;90.59
63700;BME280;49845;47.130;142.766;2023-03-16T02:54:01;100232.34;;;2.18;90.75
63700;BME280;49845;47.130;142.766;2023-03-16T02:56:31;100240.25;;;2.28;90.54
63700;BME280;49845;47.130;142.766;2023-03-16T02:59:02;100223.09;;;2.32;90.52
63700;BME280;49845;47.130;142.766;2023-03-16T03:01:34;100206.75;;;2.30;91.00
63700;BME280;49845;47.130;142.766;2023-03-16T03:04:05;100208.56;;;2.37;90.38
63700;BME280;49845;47.130;142.766;2023-03-16T03:06:36;100122.69;;;1.85;90.83
63700;BME280;49845;47.130;142.766;2023-03-16T03:09:07;100194.69;;;2.29;91.06
63700;BME280;49845;47.130;142.766;2023-03-16T03:11:39;100192.84;;;2.22;91.66
63700;BME280;49845;47.130;142.766;2023-03-16T03:14:10;100174.72;;;2.15;91.78
63700;BME280;49845;47.130;142.766;2023-03-16T03:16:42;100173.81;;;2.13;92.02
63700;BME280;49845;47.130;142.766;2023-03-16T03:19:14;100161.78;;;2.12;92.44
63700;BME280;49845;47.130;142.766;2023-03-16T03:21:44;100153.22;;;2.13;93.01
63700;BME280;49845;47.130;142.766;2023-03-16T03:24:15;100148.06;;;2.13;92.93
63700;BME280;49845;47.130;142.766;2023-03-16T03:26:46;100140.34;;;2.15;93.37
63700;BME280;49845;47.130;142.766;2023-03-16T03:29:17;100115.41;;;2.12;93.33
63700;BME280;49845;47.130;142.766;2023-03-16T03:31:49;100115.50;;;2.22;93.25
63700;BME280;49845;47.130;142.766;2023-03-16T03:34:23;100110.47;;;2.28;93.33
63700;BME280;49845;47.130;142.766;2023-03-16T03:36:54;100088.19;;;2.33;93.16
63700;BME280;49845;47.130;142.766;2023-03-16T03:39:24;100088.25;;;2.39;93.53
63700;BME280;49845;47.130;142.766;2023-03-16T03:41:55;100067.81;;;2.51;93.42
63700;BME280;49845;47.130;142.766;2023-03-16T03:44:26;100072.31;;;2.69;93.32
63700;BME280;49845;47.130;142.766;2023-03-16T03:46:58;99966.16;;;2.34;92.56
63700;BME280;49845;47.130;142.766;2023-03-16T03:49:29;100018.34;;;2.86;92.36
63700;BME280;49845;47.130;142.766;2023-03-16T03:51:59;100046.25;;;3.21;91.91
63700;BME280;49845;47.130;142.766;2023-03-16T03:54:32;100032.56;;;3.31;90.71
63700;BME280;49845;47.130;142.766;2023-03-16T03:57:03;100020.56;;;3.39;90.43
63700;BME280;49845;47.130;142.766;2023-03-16T03:59:34;100025.78;;;3.42;90.44
63700;BME280;49845;47.130;142.766;2023-03-16T04:02:12;100013.75;;;3.44;90.04
63700;BME280;49845;47.130;142.766;2023-03-16T04:04:43;99997.41;;;3.49;89.90
63700;BME280;49845;47.130;142.766;2023-03-16T04:07:14;100004.41;;;3.62;89.96
63700;BME280;49845;47.130;142.766;2023-03-16T04:09:44;100000.13;;;3.65;88.73
63700;BME280;49845;47.130;142.766;2023-03-16T04:12:15;99993.19;;;3.58;88.87
63700;BME280;49845;47.130;142.766;2023-03-16T04:14:46;99985.44;;;3.61;88.67
63700;BME280;49845;47.130;142.766;2023-03-16T04:17:18;99985.44;;;3.58;88.80
63700;BME280;49845;47.130;142.766;2023-03-16T04:19:48;99977.63;;;3.48;88.86
63700;BME280;49845;47.130;142.766;2023-03-16T04:22:19;99980.03;;;3.28;89.26
63700;BME280;49845;47.130;142.766;2023-03-16T04:24:50;99965.31;;;3.19;89.60
63700;BME280;49845;47.130;142.766;2023-03-16T04:27:21;99976.47;;;3.13;89.75
63700;BME280;49845;47.130;142.766;2023-03-16T04:29:52;99975.50;;;3.03;90.18
63700;BME280;49845;47.130;142.766;2023-03-16T04:32:27;99970.25;;;2.94;90.24
63700;BME280;49845;47.130;142.766;2023-03-16T04:34:59;99953.06;;;2.96;90.35
63700;BME280;49845;47.130;142.766;2023-03-16T04:37:29;99968.66;;;3.09;90.77
63700;BME280;49845;47.130;142.766;2023-03-16T04:40:01;99961.69;;;2.98;89.83
63700;BME280;49845;47.130;142.766;2023-03-16T04:42:39;99959.91;;;2.91;90.24
63700;BME280;49845;47.130;142.766;2023-03-16T04:45:10;99957.28;;;2.88;91.21
63700;BME280;49845;47.130;142.766;2023-03-16T04:47:43;99951.31;;;2.92;90.73
63700;BME280;49845;47.130;142.766;2023-03-16T04:50:13;99929.00;;;2.97;90.53
63700;BME280;49845;47.130;142.766;2023-03-16T04:52:44;99959.19;;;3.05;90.69
63700;BME280;49845;47.130;142.766;2023-03-16T04:55:14;99939.25;;;2.91;89.91
63700;BME280;49845;47.130;142.766;2023-03-16T04:57:45;99939.16;;;2.82;90.46
63700;BME280;49845;47.130;142.766;2023-03-16T05:00:15;99933.91;;;2.70;91.12
63700;BME280;49845;47.130;142.766;2023-03-16T05:02:50;99909.50;;;2.40;90.80
63700;BME280;49845;47.130;142.766;2023-03-16T05:05:21;99930.28;;;2.52;91.27
63700;BME280;49845;47.130;142.766;2023-03-16T05:07:51;99939.72;;;2.53;91.31
63700;BME280;49845;47.130;142.766;2023-03-16T05:10:22;99879.25;;;2.22;91.56
63700;BME280;49845;47.130;142.766;2023-03-16T05:12:53;99923.38;;;2.51;91.80
63700;BME280;49845;47.130;142.766;2023-03-16T05:15:24;99919.97;;;2.52;91.83
63700;BME280;49845;47.130;142.766;2023-03-16T05:17:56;99887.00;;;2.27;91.68
63700;BME280;49845;47.130;142.766;2023-03-16T05:20:27;99923.38;;;2.51;92.02
63700;BME280;49845;47.130;142.766;2023-03-16T05:22:57;99923.38;;;2.51;91.89
63700;BME280;49845;47.130;142.766;2023-03-16T05:25:28;99927.63;;;2.49;91.93
63700;BME280;49845;47.130;142.766;2023-03-16T05:27:58;99927.63;;;2.45;92.33
63700;BME280;49845;47.130;142.766;2023-03-16T05:30:29;99913.03;;;2.48;92.37
63700;BME280;49845;47.130;142.766;2023-03-16T05:33:01;99906.16;;;2.47;92.57
63700;BME280;49845;47.130;142.766;2023-03-16T05:35:32;99901.84;;;2.45;92.42
63700;BME280;49845;47.130;142.766;2023-03-16T05:38:03;99891.28;;;2.23;92.57
63700;BME280;49845;47.130;142.766;2023-03-16T05:40:37;99937.00;;;2.38;92.72
63700;BME280;49845;47.130;142.766;2023-03-16T05:43:08;99933.38;;;2.24;92.92
63700;BME280;49845;47.130;142.766;2023-03-16T05:45:38;99928.00;;;2.05;92.99
63700;BME280;49845;47.130;142.766;2023-03-16T05:48:10;99949.50;;;2.09;93.38
63700;BME280;49845;47.130;142.766;2023-03-16T05:50:41;99946.94;;;2.07;93.93
63700;BME280;49845;47.130;142.766;2023-03-16T05:53:11;99951.28;;;2.13;94.68
63700;BME280;49845;47.130;142.766;2023-03-16T05:55:42;99963.34;;;2.17;94.57
63700;BME280;49845;47.130;142.766;2023-03-16T05:58:13;99963.38;;;2.19;94.92
63700;BME280;49845;47.130;142.766;2023-03-16T06:00:43;99945.28;;;2.12;94.46
63700;BME280;49845;47.130;142.766;2023-03-16T06:03:15;99954.94;;;2.30;94.74
63700;BME280;49845;47.130;142.766;2023-03-16T06:05:47;99953.34;;;2.42;94.96
63700;BME280;49845;47.130;142.766;2023-03-16T06:08:17;99956.84;;;2.45;94.38
63700;BME280;49845;47.130;142.766;2023-03-16T06:10:47;99961.97;;;2.44;94.00
63700;BME280;49845;47.130;142.766;2023-03-16T06:13:18;99930.66;;;2.11;93.77
63700;BME280;49845;47.130;142.766;2023-03-16T06:15:49;99962.81;;;2.41;93.37
63700;BME280;49845;47.130;142.766;2023-03-16T06:18:21;99966.19;;;2.37;93.38
63700;BME280;49845;47.130;142.766;2023-03-16T06:20:52;99919.50;;;2.12;93.26
63700;BME280;49845;47.130;142.766;2023-03-16T06:23:22;99858.94;;;1.80;92.93
63700;BME280;49845;47.130;142.766;2023-03-16T06:25:53;99954.09;;;2.30;93.02
63700;BME280;49845;47.130;142.766;2023-03-16T06:28:23;99917.69;;;2.05;92.71
63700;BME280;49845;47.130;142.766;2023-03-16T06:30:55;99950.47;;;2.15;93.31
63700;BME280;49845;47.130;142.766;2023-03-16T06:33:28;99900.13;;;1.75;93.26
63700;BME280;49845;47.130;142.766;2023-03-16T06:35:58;99961.59;;;2.14;93.36
63700;BME280;49845;47.130;142.766;2023-03-16T06:38:30;99908.06;;;1.90;93.02
63700;BME280;49845;47.130;142.766;2023-03-16T06:41:00;99963.31;;;2.14;92.53
63700;BME280;49845;47.130;142.766;2023-03-16T06:43:31;99971.44;;;2.43;92.73
63700;BME280;49845;47.130;142.766;2023-03-16T06:46:01;99985.38;;;2.61;91.63
63700;BME280;49845;47.130;142.766;2023-03-16T06:48:34;99990.56;;;2.64;91.01
63700;BME280;49845;47.130;142.766;2023-03-16T06:51:04;100009.38;;;2.53;91.14
63700;BME280;49845;47.130;142.766;2023-03-16T06:53:36;100026.34;;;2.36;91.05
63700;BME280;49845;47.130;142.766;2023-03-16T06:56:06;100039.75;;;2.10;91.68
63700;BME280;49845;47.130;142.766;2023-03-16T06:58:37;100071.31;;;1.97;92.33
63700;BME280;49845;47.130;142.766;2023-03-16T07:01:08;100080.56;;;1.83;92.44
63700;BME280;49845;47.130;142.766;2023-03-16T07:03:41;100094.28;;;1.82;92.86
63700;BME280;49845;47.130;142.766;2023-03-16T07:06:11;100102.03;;;1.83;93.33
63700;BME280;49845;47.130;142.766;2023-03-16T07:08:42;100110.50;;;1.76;93.28
63700;BME280;49845;47.130;142.766;2023-03-16T07:11:12;100112.25;;;1.79;92.79
63700;BME280;49845;47.130;142.766;2023-03-16T07:13:43;100132.03;;;1.80;92.91
63700;BME280;49845;47.130;142.766;2023-03-16T07:16:14;100119.91;;;1.72;92.69
63700;BME280;49845;47.130;142.766;2023-03-16T07:18:46;100126.81;;;1.77;92.38
63700;BME280;49845;47.130;142.766;2023-03-16T07:21:16;100139.75;;;1.80;92.31
63700;BME280;49845;47.130;142.766;2023-03-16T07:23:47;100135.50;;;1.82;92.46
63700;BME280;49845;47.130;142.766;2023-03-16T07:26:18;100121.84;;;1.86;91.84
63700;BME280;49845;47.130;142.766;2023-03-16T07:28:48;100132.34;;;1.98;91.13
63700;BME280;49845;47.130;142.766;2023-03-16T07:31:19;100144.56;;;2.11;89.72
63700;BME280;49845;47.130;142.766;2023-03-16T07:33:51;100134.31;;;2.14;88.47
63700;BME280;49845;47.130;142.766;2023-03-16T07:36:22;100096.03;;;1.83;87.73
63700;BME280;49845;47.130;142.766;2023-03-16T07:38:53;100158.63;;;2.32;86.98
63700;BME280;49845;47.130;142.766;2023-03-16T07:41:24;100094.44;;;1.91;85.81
63700;BME280;49845;47.130;142.766;2023-03-16T07:43:54;100171.50;;;2.29;85.19
63700;BME280;49845;47.130;142.766;2023-03-16T07:46:25;100171.38;;;2.21;85.33
63700;BME280;49845;47.130;142.766;2023-03-16T07:48:58;100189.50;;;2.26;85.21
63700;BME280;49845;47.130;142.766;2023-03-16T07:51:28;100196.25;;;2.19;85.33
63700;BME280;49845;47.130;142.766;2023-03-16T07:53:59;100184.09;;;2.10;85.61
63700;BME280;49845;47.130;142.766;2023-03-16T07:56:29;100194.44;;;2.13;83.58
63700;BME280;49845;47.130;142.766;2023-03-16T07:59:15;100208.13;;;2.09;81.90
63700;BME280;49845;47.130;142.766;2023-03-16T08:01:47;100203.63;;;1.98;79.77
63700;BME280;49845;47.130;142.766;2023-03-16T08:04:22;100206.00;;;1.87;79.83
63700;BME280;49845;47.130;142.766;2023-03-16T08:06:55;100217.94;;;1.82;79.77
63700;BME280;49845;47.130;142.766;2023-03-16T08:09:28;100215.31;;;1.79;80.41
63700;BME280;49845;47.130;142.766;2023-03-16T08:11:58;100216.88;;;1.70;80.60
63700;BME280;49845;47.130;142.766;2023-03-16T08:14:32;100218.53;;;1.67;80.14
63700;BME280;49845;47.130;142.766;2023-03-16T08:17:05;100227.78;;;1.57;79.45
63700;BME280;49845;47.130;142.766;2023-03-16T08:19:46;100228.53;;;1.50;78.72
63700;BME280;49845;47.130;142.766;2023-03-16T08:22:17;100246.41;;;1.44;78.93
63700;BME280;49845;47.130;142.766;2023-03-16T08:24:49;100251.31;;;1.32;78.44
63700;BME280;49845;47.130;142.766;2023-03-16T08:27:19;100203.03;;;0.80;78.90
63700;BME280;49845;47.130;142.766;2023-03-16T08:29:53;100153.34;;;0.43;78.97
63700;BME280;49845;47.130;142.766;2023-03-16T08:32:25;100262.56;;;0.96;78.94
63700;BME280;49845;47.130;142.766;2023-03-16T08:34:57;100269.22;;;0.88;79.15
63700;BME280;49845;47.130;142.766;2023-03-16T08:37:28;100262.03;;;0.74;78.14
63700;BME280;49845;47.130;142.766;2023-03-16T08:39:59;100271.97;;;0.59;76.48
63700;BME280;49845;47.130;142.766;2023-03-16T08:42:37;100302.69;;;0.53;76.79
63700;BME280;49845;47.130;142.766;2023-03-16T08:45:09;100306.06;;;0.52;77.20
63700;BME280;49845;47.130;142.766;2023-03-16T08:47:41;100305.69;;;0.36;77.89
63700;BME280;49845;47.130;142.766;2023-03-16T08:50:13;100326.34;;;0.39;77.97
63700;BME280;49845;47.130;142.766;2023-03-16T08:52:44;100344.13;;;0.32;77.34
63700;BME280;49845;47.130;142.766;2023-03-16T08:55:17;100346.50;;;0.24;77.37
63700;BME280;49845;47.130;142.766;2023-03-16T08:57:48;100339.44;;;0.17;76.76
63700;BME280;49845;47.130;142.766;2023-03-16T09:00:20;100337.53;;;0.10;76.63
63700;BME280;49845;47.130;142.766;2023-03-16T09:02:51;100359.84;;;0.11;77.14
63700;BME280;49845;47.130;142.766;2023-03-16T09:05:25;100363.22;;;0.10;77.02
63700;BME280;49845;47.130;142.766;2023-03-16T09:07:58;100385.38;;;0.05;77.04
63700;BME280;49845;47.130;142.766;2023-03-16T09:10:33;100381.78;;;-0.01;76.48
63700;BME280;49845;47.130;142.766;2023-03-16T09:13:09;100391.06;;;-0.06;75.90
63700;BME280;49845;47.130;142.766;2023-03-16T09:15:39;100398.69;;;-0.09;75.76
63700;BME280;49845;47.130;142.766;2023-03-16T09:18:10;100393.56;;;-0.09;76.55
63700;BME280;49845;47.130;142.766;2023-03-16T09:20:42;100412.38;;;-0.10;75.88
63700;BME280;49845;47.130;142.766;2023-03-16T09:23:15;100417.50;;;-0.10;75.90
63700;BME280;49845;47.130;142.766;2023-03-16T09:25:46;100420.91;;;-0.11;75.93
63700;BME280;49845;47.130;142.766;2023-03-16T09:28:22;100424.31;;;-0.12;75.84
63700;BME280;49845;47.130;142.766;2023-03-16T09:30:52;100418.81;;;-0.24;75.05
63700;BME280;49845;47.130;142.766;2023-03-16T09:33:24;100406.44;;;-0.37;75.23
63700;BME280;49845;47.130;142.766;2023-03-16T09:36:02;100434.13;;;-0.27;75.14
63700;BME280;49845;47.130;142.766;2023-03-16T09:38:33;100446.31;;;-0.20;74.81
63700;BME280;49845;47.130;142.766;2023-03-16T09:41:08;100448.06;;;-0.19;74.82
63700;BME280;49845;47.130;142.766;2023-03-16T09:43:54;100455.03;;;-0.15;74.88
63700;BME280;49845;47.130;142.766;2023-03-16T09:46:31;100449.13;;;-0.12;75.40
63700;BME280;49845;47.130;142.766;2023-03-16T09:49:07;100450.06;;;-0.09;75.80
63700;BME280;49845;47.130;142.766;2023-03-16T09:51:43;100450.06;;;-0.09;75.47
63700;BME280;49845;47.130;142.766;2023-03-16T09:54:26;100449.91;;;-0.15;75.00
63700;BME280;49845;47.130;142.766;2023-03-16T09:57:01;100451.47;;;-0.20;75.63
63700;BME280;49845;47.130;142.766;2023-03-16T09:59:36;100456.59;;;-0.20;75.02
63700;BME280;49845;47.130;142.766;2023-03-16T10:02:25;100469.94;;;-0.30;75.13
63700;BME280;49845;47.130;142.766;2023-03-16T10:05:05;100468.06;;;-0.37;75.17
63700;BME280;49845;47.130;142.766;2023-03-16T10:07:44;100466.00;;;-0.48;75.39
63700;BME280;49845;47.130;142.766;2023-03-16T10:10:36;100484.16;;;-0.41;75.18
63700;BME280;49845;47.130;142.766;2023-03-16T10:13:12;100493.44;;;-0.47;75.03
63700;BME280;49845;47.130;142.766;2023-03-16T10:15:46;100502.06;;;-0.45;75.39
63700;BME280;49845;47.130;142.766;2023-03-16T10:18:20;100519.91;;;-0.48;75.46
63700;BME280;49845;47.130;142.766;2023-03-16T10:20:52;100525.88;;;-0.49;75.61
63700;BME280;49845;47.130;142.766;2023-03-16T10:23:25;100529.28;;;-0.50;75.27
63700;BME280;49845;47.130;142.766;2023-03-16T10:25:57;100529.06;;;-0.56;75.53
63700;BME280;49845;47.130;142.766;2023-03-16T10:28:30;100540.97;;;-0.58;75.61
63700;BME280;49845;47.130;142.766;2023-03-16T10:31:01;100544.34;;;-0.59;75.69
63700;BME280;49845;47.130;142.766;2023-03-16T10:33:33;100506.59;;;-0.89;75.64
63700;BME280;49845;47.130;142.766;2023-03-16T10:36:17;100537.22;;;-0.68;75.65
63700;BME280;49845;47.130;142.766;2023-03-16T10:39:11;100550.94;;;-0.67;75.82
63700;BME280;49845;47.130;142.766;2023-03-16T10:42:00;100541.78;;;-0.59;75.99
63700;BME280;49845;47.130;142.766;2023-03-16T10:44:31;100548.66;;;-0.58;75.94
63700;BME280;49845;47.130;142.766;2023-03-16T10:47:21;100545.44;;;-0.52;76.02
63700;BME280;49845;47.130;142.766;2023-03-16T10:49:52;100548.13;;;-0.48;75.60
63700;BME280;49845;47.130;142.766;2023-03-16T10:52:27;100546.41;;;-0.49;76.08
63700;BME280;49845;47.130;142.766;2023-03-16T10:55:09;100550.09;;;-0.40;76.25
63700;BME280;49845;47.130;142.766;2023-03-16T10:57:41;100544.75;;;-0.47;76.31
63700;BME280;49845;47.130;142.766;2023-03-16T11:00:22;100561.13;;;-0.43;75.94
63700;BME280;49845;47.130;142.766;2023-03-16T11:02:59;100539.31;;;-0.56;75.88
63700;BME280;49845;47.130;142.766;2023-03-16T11:05:31;100553.28;;;-0.48;75.96
63700;BME280;49845;47.130;142.766;2023-03-16T11:08:07;100551.63;;;-0.46;76.52
63700;BME280;49845;47.130;142.766;2023-03-16T11:10:45;100454.06;;;-1.00;76.46
63700;BME280;49845;47.130;142.766;2023-03-16T11:13:24;100473.16;;;-0.92;76.19
63700;BME280;49845;47.130;142.766;2023-03-16T11:16:10;100559.25;;;-0.49;75.85
63700;BME280;49845;47.130;142.766;2023-03-16T11:19:05;100512.84;;;-0.80;76.13
63700;BME280;49845;47.130;142.766;2023-03-16T11:21:55;100544.25;;;-0.62;75.71
63700;BME280;49845;47.130;142.766;2023-03-16T11:24:32;100557.13;;;-0.60;75.41
63700;BME280;49845;47.130;142.766;2023-03-16T11:27:35;100569.09;;;-0.61;75.43
63700;BME280;49845;47.130;142.766;2023-03-16T11:30:21;100565.72;;;-0.60;75.32
63700;BME280;49845;47.130;142.766;2023-03-16T11:33:00;100572.53;;;-0.60;75.87
63700;BME280;49845;47.130;142.766;2023-03-16T11:35:47;100574.94;;;-0.65;75.53
63700;BME280;49845;47.130;142.766;2023-03-16T11:38:31;100571.25;;;-0.73;75.64
63700;BME280;49845;47.130;142.766;2023-03-16T11:41:04;100577.81;;;-0.81;76.08
63700;BME280;49845;47.130;142.766;2023-03-16T11:43:52;100563.63;;;-0.96;76.16
63700;BME280;49845;47.130;142.766;2023-03-16T11:46:26;100583.47;;;-0.90;76.25
63700;BME280;49845;47.130;142.766;2023-03-16T11:49:23;100586.00;;;-0.92;76.39
63700;BME280;49845;47.130;142.766;2023-03-16T11:52:09;100582.31;;;-1.00;76.57
63700;BME280;49845;47.130;142.766;2023-03-16T11:54:54;100578.69;;;-1.05;76.75
63700;BME280;49845;47.130;142.766;2023-03-16T11:57:42;100575.41;;;-1.01;76.81
63700;BME280;49845;47.130;142.766;2023-03-16T12:00:26;100583.94;;;-1.02;76.61
63700;BME280;49845;47.130;142.766;2023-03-16T12:03:33;100577.78;;;-1.07;76.94
63700;BME280;49845;47.130;142.766;2023-03-16T12:06:18;100576.75;;;-1.12;77.03
63700;BME280;49845;47.130;142.766;2023-03-16T12:09:08;100580.19;;;-1.12;77.65
63700;BME280;49845;47.130;142.766;2023-03-16T12:11:46;100587.00;;;-1.12;77.81
63700;BME280;49845;47.130;142.766;2023-03-16T12:14:26;100589.50;;;-1.14;77.84
63700;BME280;49845;47.130;142.766;2023-03-16T12:17:08;100572.03;;;-1.24;77.67
63700;BME280;49845;47.130;142.766;2023-03-16T12:19:46;100572.81;;;-1.26;77.98
63700;BME280;49845;47.130;142.766;2023-03-16T12:22:20;100586.56;;;-1.24;78.24
63700;BME280;49845;47.130;142.766;2023-03-16T12:24:55;100584.78;;;-1.25;78.19
63700;BME280;49845;47.130;142.766;2023-03-16T12:27:31;100584.91;;;-1.22;78.23
63700;BME280;49845;47.130;142.766;2023-03-16T12:30:22;100584.78;;;-1.25;78.62
63700;BME280;49845;47.130;142.766;2023-03-16T12:33:19;100578.69;;;-1.29;78.43
63700;BME280;49845;47.130;142.766;2023-03-16T12:36:01;100575.84;;;-1.37;78.68
63700;BME280;49845;47.130;142.766;2023-03-16T12:38:43;100596.47;;;-1.34;78.71
63700;BME280;49845;47.130;142.766;2023-03-16T12:41:24;100601.69;;;-1.31;78.75
63700;BME280;49845;47.130;142.766;2023-03-16T12:44:09;100613.59;;;-1.33;78.68
63700;BME280;49845;47.130;142.766;2023-03-16T12:46:51;100608.13;;;-1.42;78.34
63700;BME280;49845;47.130;142.766;2023-03-16T12:49:26;100606.72;;;-1.34;78.40
63700;BME280;49845;47.130;142.766;2023-03-16T12:52:03;100618.72;;;-1.33;78.07
63700;BME280;49845;47.130;142.766;2023-03-16T12:54:36;100611.84;;;-1.34;77.48
63700;BME280;49845;47.130;142.766;2023-03-16T12:57:08;100603.47;;;-1.29;77.40
63700;BME280;49845;47.130;142.766;2023-03-16T12:59:45;100612.69;;;-1.35;76.31
63700;BME280;49845;47.130;142.766;2023-03-16T13:02:20;100615.09;;;-1.38;76.00
63700;BME280;49845;47.130;142.766;2023-03-16T13:05:00;100608.00;;;-1.45;75.90
63700;BME280;49845;47.130;142.766;2023-03-16T13:07:35;100620.88;;;-1.43;75.23
63700;BME280;49845;47.130;142.766;2023-03-16T13:10:13;100621.66;;;-1.46;75.45
63700;BME280;49845;47.130;142.766;2023-03-16T13:12:46;100612.91;;;-1.51;75.19